createdAt,value
2023-04-13T00:00:08.602Z,0.00
2023-04-13T00:01:08.780Z,0.00
2023-04-13T00:02:09.122Z,0.00
2023-04-13T00:03:09.382Z,0.00
2023-04-13T00:04:09.616Z,0.00
2023-04-13T00:05:09.771Z,0.00
2023-04-13T00:06:10.065Z,0.00
2023-04-13T00:07:10.255Z,0.00
2023-04-13T00:08:10.467Z,0.00
2023-04-13T00:09:10.671Z,0.00
2023-04-13T00:10:10.996Z,0.00
2023-04-13T00:11:11.163Z,0.00
2023-04-13T00:12:11.463Z,0.00
2023-04-13T00:13:11.778Z,0.00
2023-04-13T00:14:11.992Z,0.00
2023-04-13T00:15:12.173Z,0.00
2023-04-13T00:16:12.548Z,0.00
2023-04-13T00:17:12.734Z,0.00
2023-04-13T00:18:13.070Z,0.00
2023-04-13T00:19:13.276Z,0.00
2023-04-13T00:20:13.608Z,0.00
2023-04-13T00:21:13.794Z,0.00
2023-04-13T00:22:14.094Z,0.00
2023-04-13T00:23:14.295Z,0.00
2023-04-13T00:24:14.608Z,0.00
2023-04-13T00:25:14.816Z,0.00
2023-04-13T00:26:15.118Z,0.00
2023-04-13T00:27:15.317Z,0.00
2023-04-13T00:28:15.546Z,0.00
2023-04-13T00:29:15.747Z,0.00
2023-04-13T00:30:16.007Z,0.00
2023-04-13T00:31:16.297Z,0.00
2023-04-13T00:32:16.505Z,0.00
2023-04-13T00:33:16.939Z,0.00
2023-04-13T00:34:17.071Z,0.00
2023-04-13T00:35:17.434Z,0.00
2023-04-13T00:36:17.596Z,0.00
2023-04-13T00:37:17.934Z,0.00
2023-04-13T00:38:18.127Z,0.00
2023-04-13T00:39:18.336Z,0.00
2023-04-13T00:40:18.534Z,0.00
2023-04-13T00:41:18.842Z,0.00
2023-04-13T00:42:20.005Z,0.00
2023-04-13T00:43:19.330Z,0.00
2023-04-13T00:44:19.524Z,0.00
2023-04-13T00:45:20.758Z,0.00
2023-04-13T00:46:20.094Z,0.00
2023-04-13T00:47:20.313Z,0.00
2023-04-13T00:48:20.495Z,0.00
2023-04-13T00:49:20.704Z,0.00
2023-04-13T00:50:21.104Z,0.00
2023-04-13T00:51:21.186Z,0.00
2023-04-13T00:52:21.373Z,0.00
2023-04-13T00:53:21.708Z,0.00
2023-04-13T00:54:21.894Z,0.00
2023-04-13T00:55:22.162Z,0.00
2023-04-13T00:56:22.312Z,0.00
2023-04-13T00:57:22.634Z,0.00
2023-04-13T00:58:22.839Z,0.00
2023-04-13T00:59:23.153Z,0.00
2023-04-13T01:00:23.356Z,0.00
2023-04-13T01:01:23.613Z,0.00
2023-04-13T01:02:23.875Z,0.00
2023-04-13T01:03:24.088Z,0.00
2023-04-13T01:04:24.348Z,0.00
2023-04-13T01:05:24.513Z,0.00
2023-04-13T01:06:24.714Z,0.00
2023-04-13T01:07:25.041Z,0.00
2023-04-13T01:08:25.250Z,0.00
2023-04-13T01:09:25.451Z,0.00
2023-04-13T01:10:25.678Z,0.00
2023-04-13T01:11:25.889Z,0.00
2023-04-13T01:12:26.078Z,0.00
2023-04-13T01:13:26.420Z,0.00
2023-04-13T01:14:26.629Z,0.00
2023-04-13T01:15:26.865Z,0.00
2023-04-13T01:16:27.156Z,0.00
2023-04-13T01:17:27.379Z,0.00
2023-04-13T01:18:27.565Z,0.00
2023-04-13T01:19:27.775Z,0.00
2023-04-13T01:20:27.998Z,0.00
2023-04-13T01:21:28.191Z,0.00
2023-04-13T01:22:28.396Z,0.00
2023-04-13T01:23:28.723Z,0.00
2023-04-13T01:24:28.917Z,0.00
2023-04-13T01:25:29.128Z,0.00
2023-04-13T01:26:29.326Z,0.00
2023-04-13T01:27:29.635Z,0.00
2023-04-13T01:28:29.960Z,0.00
2023-04-13T01:29:30.154Z,0.00
2023-04-13T01:30:30.358Z,0.00
2023-04-13T01:31:30.714Z,0.00
2023-04-13T01:32:30.922Z,0.00
2023-04-13T01:33:31.239Z,0.00
2023-04-13T01:34:31.571Z,0.00
2023-04-13T01:35:31.711Z,0.00
2023-04-13T01:36:31.903Z,0.00
2023-04-13T01:37:32.222Z,0.00
2023-04-13T01:38:32.423Z,0.00
2023-04-13T01:39:32.748Z,0.00
2023-04-13T01:40:32.944Z,0.00
2023-04-13T01:41:33.262Z,0.00
2023-04-13T01:42:33.474Z,0.00
2023-04-13T01:43:33.786Z,0.00
2023-04-13T01:44:34.049Z,0.00
2023-04-13T01:45:34.205Z,0.00
2023-04-13T01:46:34.451Z,0.00
2023-04-13T01:47:34.736Z,0.00
2023-04-13T01:48:34.954Z,0.00
2023-04-13T01:49:35.285Z,0.00
2023-04-13T01:50:35.483Z,0.00
2023-04-13T01:51:35.821Z,0.00
2023-04-13T01:52:36.020Z,0.00
2023-04-13T01:53:36.225Z,0.00
2023-04-13T01:54:36.427Z,0.00
2023-04-13T01:55:36.630Z,0.00
2023-04-13T01:56:36.836Z,0.00
2023-04-13T01:57:37.168Z,0.00
2023-04-13T01:58:37.372Z,0.00
2023-04-13T01:59:37.698Z,0.00
2023-04-13T02:00:37.925Z,0.00
2023-04-13T02:01:38.198Z,0.00
2023-04-13T02:02:38.528Z,0.00
2023-04-13T02:03:38.922Z,0.00
2023-04-13T02:04:38.922Z,0.00
2023-04-13T02:05:39.243Z,0.00
2023-04-13T02:06:39.551Z,0.00
2023-04-13T02:07:39.805Z,0.00
2023-04-13T02:08:40.031Z,0.00
2023-04-13T02:09:40.253Z,0.00
2023-04-13T02:10:40.444Z,0.00
2023-04-13T02:11:40.768Z,0.00
2023-04-13T02:12:40.970Z,0.00
2023-04-13T02:13:41.310Z,0.00
2023-04-13T02:14:41.518Z,0.00
2023-04-13T02:15:41.727Z,0.00
2023-04-13T02:16:42.001Z,0.00
2023-04-13T02:17:42.286Z,0.00
2023-04-13T02:18:42.442Z,0.00
2023-04-13T02:19:42.654Z,0.00
2023-04-13T02:20:42.896Z,0.00
2023-04-13T02:21:43.124Z,0.00
2023-04-13T02:22:43.333Z,0.00
2023-04-13T02:23:43.583Z,0.00
2023-04-13T02:24:43.776Z,0.00
2023-04-13T02:25:46.084Z,0.00
2023-04-13T02:26:44.283Z,0.00
2023-04-13T02:27:44.493Z,0.00
2023-04-13T02:28:44.713Z,0.00
2023-04-13T02:29:44.930Z,0.00
2023-04-13T02:30:45.174Z,0.00
2023-04-13T02:31:45.428Z,0.00
2023-04-13T02:32:45.621Z,0.00
2023-04-13T02:33:45.938Z,0.00
2023-04-13T02:34:46.176Z,0.00
2023-04-13T02:35:46.359Z,0.00
2023-04-13T02:36:46.570Z,0.00
2023-04-13T02:37:46.882Z,0.00
2023-04-13T02:38:47.089Z,0.00
2023-04-13T02:39:47.342Z,0.00
2023-04-13T02:40:47.519Z,0.00
2023-04-13T02:41:47.829Z,0.00
2023-04-13T02:42:48.159Z,0.00
2023-04-13T02:43:48.367Z,0.00
2023-04-13T02:44:48.583Z,0.00
2023-04-13T02:45:49.060Z,0.00
2023-04-13T02:46:49.168Z,0.00
2023-04-13T02:47:49.509Z,0.00
2023-04-13T02:48:49.763Z,0.00
2023-04-13T02:49:49.987Z,0.00
2023-04-13T02:50:50.186Z,0.00
2023-04-13T02:51:50.492Z,0.00
2023-04-13T02:52:50.693Z,0.00
2023-04-13T02:53:51.015Z,0.00
2023-04-13T02:54:51.214Z,0.00
2023-04-13T02:55:51.533Z,0.00
2023-04-13T02:56:51.753Z,0.00
2023-04-13T02:57:51.970Z,0.00
2023-04-13T02:58:52.172Z,0.00
2023-04-13T02:59:52.392Z,0.00
2023-04-13T03:00:52.700Z,0.00
2023-04-13T03:01:53.018Z,0.00
2023-04-13T03:02:53.315Z,0.00
2023-04-13T03:03:53.408Z,0.00
2023-04-13T03:04:53.649Z,0.00
2023-04-13T03:05:53.866Z,0.00
2023-04-13T03:06:54.058Z,0.00
2023-04-13T03:07:54.404Z,0.00
2023-04-13T03:08:54.606Z,0.00
2023-04-13T03:09:54.834Z,0.00
2023-04-13T03:10:55.075Z,0.00
2023-04-13T03:11:55.386Z,0.00
2023-04-13T03:12:55.602Z,0.00
2023-04-13T03:13:55.966Z,0.00
2023-04-13T03:14:56.148Z,0.00
2023-04-13T03:15:56.474Z,0.00
2023-04-13T03:16:56.731Z,0.00
2023-04-13T03:17:57.075Z,0.00
2023-04-13T03:18:57.244Z,0.00
2023-04-13T03:19:57.477Z,0.00
2023-04-13T03:20:57.686Z,0.00
2023-04-13T03:21:58.033Z,0.00
2023-04-13T03:22:58.259Z,0.00
2023-04-13T03:23:58.709Z,0.00
2023-04-13T03:24:58.687Z,0.00
2023-04-13T03:25:59.019Z,0.00
2023-04-13T03:26:59.237Z,0.00
2023-04-13T03:27:59.455Z,0.00
2023-04-13T03:28:59.655Z,0.00
2023-04-13T03:29:59.866Z,0.00
2023-04-13T03:31:00.138Z,0.00
2023-04-13T03:32:00.375Z,0.00
2023-04-13T03:33:00.672Z,0.00
2023-04-13T03:34:01.114Z,0.00
2023-04-13T03:35:01.194Z,0.00
2023-04-13T03:36:01.427Z,0.00
2023-04-13T03:37:01.624Z,0.00
2023-04-13T03:38:01.858Z,0.00
2023-04-13T03:39:02.060Z,0.00
2023-04-13T03:40:02.317Z,0.00
2023-04-13T03:41:02.487Z,0.00
2023-04-13T03:42:02.825Z,0.00
2023-04-13T03:43:03.017Z,0.00
2023-04-13T03:44:03.364Z,0.00
2023-04-13T03:45:03.550Z,0.00
2023-04-13T03:46:03.949Z,0.00
2023-04-13T03:47:04.146Z,0.00
2023-04-13T03:48:04.529Z,0.00
2023-04-13T03:49:04.713Z,0.00
2023-04-13T03:50:04.954Z,4.00
2023-04-13T03:51:05.170Z,4.00
2023-04-13T03:52:05.397Z,0.00
2023-04-13T03:53:05.622Z,4.00
2023-04-13T03:54:05.848Z,4.00
2023-04-13T03:55:06.147Z,4.00
2023-04-13T03:56:06.384Z,4.00
2023-04-13T03:57:06.607Z,8.00
2023-04-13T03:58:06.868Z,8.00
2023-04-13T03:59:07.094Z,8.00
2023-04-13T04:00:07.330Z,12.00
2023-04-13T04:01:07.581Z,12.00
2023-04-13T04:02:07.862Z,16.00
2023-04-13T04:03:08.176Z,20.00
2023-04-13T04:04:08.443Z,20.00
2023-04-13T04:05:08.635Z,20.00
2023-04-13T04:06:10.668Z,24.00
2023-04-13T04:07:09.133Z,28.00
2023-04-13T04:08:09.487Z,36.00
2023-04-13T04:09:09.697Z,44.00
2023-04-13T04:10:09.907Z,48.00
2023-04-13T04:11:10.095Z,56.00
2023-04-13T04:12:12.379Z,64.00
2023-04-13T04:13:10.656Z,72.00
2023-04-13T04:14:11.024Z,84.00
2023-04-13T04:15:11.219Z,88.00
2023-04-13T04:16:11.636Z,100.00
2023-04-13T04:17:11.670Z,112.00
2023-04-13T04:18:11.928Z,124.00
2023-04-13T04:19:12.105Z,132.00
2023-04-13T04:20:12.320Z,148.00
2023-04-13T04:21:13.505Z,160.00
2023-04-13T04:22:13.189Z,172.00
2023-04-13T04:23:13.065Z,180.00
2023-04-13T04:24:13.395Z,188.00
2023-04-13T04:25:13.616Z,196.00
2023-04-13T04:26:13.837Z,204.00
2023-04-13T04:27:14.036Z,212.00
2023-04-13T04:28:14.268Z,224.00
2023-04-13T04:29:14.488Z,232.00
2023-04-13T04:30:14.714Z,244.00
2023-04-13T04:31:14.930Z,252.00
2023-04-13T04:32:15.240Z,264.00
2023-04-13T04:33:15.461Z,276.00
2023-04-13T04:34:15.801Z,284.00
2023-04-13T04:35:16.025Z,300.00
2023-04-13T04:36:16.239Z,324.00
2023-04-13T04:37:20.592Z,360.00
2023-04-13T04:38:16.679Z,404.00
2023-04-13T04:39:16.904Z,456.00
2023-04-13T04:40:17.140Z,504.00
2023-04-13T04:41:17.317Z,540.00
2023-04-13T04:42:17.640Z,564.00
2023-04-13T04:43:17.861Z,572.00
2023-04-13T04:44:18.197Z,568.00
2023-04-13T04:45:18.403Z,560.00
2023-04-13T04:46:25.943Z,552.00
2023-04-13T04:47:23.753Z,540.00
2023-04-13T04:48:24.120Z,532.00
2023-04-13T04:49:19.546Z,532.00
2023-04-13T04:50:19.820Z,540.00
2023-04-13T04:51:20.038Z,556.00
2023-04-13T04:52:20.243Z,568.00
2023-04-13T04:53:20.581Z,572.00
2023-04-13T04:54:20.802Z,572.00
2023-04-13T04:55:21.014Z,572.00
2023-04-13T04:56:21.223Z,572.00
2023-04-13T04:57:21.559Z,580.00
2023-04-13T04:58:21.770Z,596.00
2023-04-13T04:59:22.141Z,608.00
2023-04-13T05:00:22.366Z,628.00
2023-04-13T05:01:22.901Z,652.00
2023-04-13T05:02:23.498Z,696.00
2023-04-13T05:03:23.284Z,760.00
2023-04-13T05:04:23.463Z,840.00
2023-04-13T05:05:23.701Z,916.00
2023-04-13T05:06:23.914Z,992.00
2023-04-13T05:07:24.236Z,1056.00
2023-04-13T05:08:24.473Z,1112.00
2023-04-13T05:09:24.705Z,1164.00
2023-04-13T05:10:24.915Z,1224.00
2023-04-13T05:11:25.259Z,1312.00
2023-04-13T05:12:25.464Z,1428.00
2023-04-13T05:13:25.788Z,1548.00
2023-04-13T05:14:26.312Z,1668.00
2023-04-13T05:15:26.317Z,1832.00
2023-04-13T05:16:26.578Z,2016.00
2023-04-13T05:17:26.779Z,2176.00
2023-04-13T05:18:26.969Z,2300.00
2023-04-13T05:19:27.325Z,2360.00
2023-04-13T05:20:27.525Z,2404.00
2023-04-13T05:21:27.755Z,2456.00
2023-04-13T05:22:27.957Z,2464.00
2023-04-13T05:23:28.178Z,2452.00
2023-04-13T05:24:28.422Z,2420.00
2023-04-13T05:25:28.646Z,2400.00
2023-04-13T05:26:28.848Z,2428.00
2023-04-13T05:27:29.158Z,2512.00
2023-04-13T05:28:29.368Z,2636.00
2023-04-13T05:29:29.708Z,2776.00
2023-04-13T05:30:29.926Z,2944.00
2023-04-13T05:31:30.179Z,3104.00
2023-04-13T05:32:30.419Z,3204.00
2023-04-13T05:33:30.602Z,3240.00
2023-04-13T05:34:30.911Z,3188.00
2023-04-13T05:35:31.124Z,3088.00
2023-04-13T05:36:31.447Z,2956.00
2023-04-13T05:37:31.769Z,2848.00
2023-04-13T05:38:31.998Z,2776.00
2023-04-13T05:39:32.341Z,2704.00
2023-04-13T05:40:32.661Z,2628.00
2023-04-13T05:41:32.799Z,2532.00
2023-04-13T05:42:33.000Z,2420.00
2023-04-13T05:43:33.310Z,2336.00
2023-04-13T05:44:33.532Z,2332.00
2023-04-13T05:45:33.767Z,2376.00
2023-04-13T05:46:33.946Z,2396.00
2023-04-13T05:47:34.372Z,2420.00
2023-04-13T05:48:34.746Z,2484.00
2023-04-13T05:49:34.756Z,2568.00
2023-04-13T05:50:34.962Z,2644.00
2023-04-13T05:51:35.304Z,2724.00
2023-04-13T05:52:35.506Z,2836.00
2023-04-13T05:53:35.804Z,2980.00
2023-04-13T05:54:36.011Z,3220.00
2023-04-13T05:55:36.306Z,3380.00
2023-04-13T05:56:36.515Z,3476.00
2023-04-13T05:57:36.831Z,3664.00
2023-04-13T05:58:37.014Z,4008.00
2023-04-13T05:59:37.358Z,4220.00
2023-04-13T06:00:37.558Z,4112.00
2023-04-13T06:01:37.918Z,3988.00
2023-04-13T06:02:38.260Z,4000.00
2023-04-13T06:03:38.559Z,4040.00
2023-04-13T06:04:38.860Z,4052.00
2023-04-13T06:05:38.955Z,4108.00
2023-04-13T06:06:39.191Z,4260.00
2023-04-13T06:07:39.487Z,4376.00
2023-04-13T06:08:39.700Z,4392.00
2023-04-13T06:09:39.900Z,4396.00
2023-04-13T06:10:40.122Z,4400.00
2023-04-13T06:11:40.323Z,4384.00
2023-04-13T06:12:40.524Z,4344.00
2023-04-13T06:13:40.844Z,4340.00
2023-04-13T06:14:41.114Z,4408.00
2023-04-13T06:15:41.325Z,4472.00
2023-04-13T06:16:41.593Z,4572.00
2023-04-13T06:17:41.824Z,4684.00
2023-04-13T06:18:42.002Z,4712.00
2023-04-13T06:19:42.311Z,4700.00
2023-04-13T06:20:42.498Z,4732.00
2023-04-13T06:21:42.817Z,4752.00
2023-04-13T06:22:43.041Z,4720.00
2023-04-13T06:23:43.337Z,4688.00
2023-04-13T06:24:43.548Z,4664.00
2023-04-13T06:25:43.870Z,4676.00
2023-04-13T06:26:44.081Z,4704.00
2023-04-13T06:27:44.400Z,4728.00
2023-04-13T06:28:44.576Z,4744.00
2023-04-13T06:29:44.794Z,4776.00
2023-04-13T06:30:45.063Z,4772.00
2023-04-13T06:31:45.291Z,4780.00
2023-04-13T06:32:45.561Z,4804.00
2023-04-13T06:33:45.730Z,4840.00
2023-04-13T06:34:45.939Z,4872.00
2023-04-13T06:35:46.272Z,4956.00
2023-04-13T06:36:46.463Z,5040.00
2023-04-13T06:37:46.786Z,5136.00
2023-04-13T06:38:46.996Z,5240.00
2023-04-13T06:39:47.257Z,5312.00
2023-04-13T06:40:47.444Z,5368.00
2023-04-13T06:41:47.806Z,5476.00
2023-04-13T06:42:47.988Z,5608.00
2023-04-13T06:43:48.305Z,5760.00
2023-04-13T06:44:48.500Z,5932.00
2023-04-13T06:45:48.825Z,6100.00
2023-04-13T06:46:49.179Z,6220.00
2023-04-13T06:47:49.306Z,6300.00
2023-04-13T06:48:49.483Z,6364.00
2023-04-13T06:49:49.849Z,6432.00
2023-04-13T06:50:50.088Z,6528.00
2023-04-13T06:51:50.292Z,6600.00
2023-04-13T06:52:50.497Z,6660.00
2023-04-13T06:53:50.810Z,6640.00
2023-04-13T06:54:51.000Z,6608.00
2023-04-13T06:55:51.210Z,6580.00
2023-04-13T06:56:51.408Z,6552.00
2023-04-13T06:57:51.623Z,6580.00
2023-04-13T06:58:51.823Z,6624.00
2023-04-13T06:59:52.021Z,6620.00
2023-04-13T07:00:52.290Z,6556.00
2023-04-13T07:01:52.525Z,6548.00
2023-04-13T07:02:52.855Z,6508.00
2023-04-13T07:03:53.155Z,6464.00
2023-04-13T07:04:53.327Z,6416.00
2023-04-13T07:05:53.454Z,6400.00
2023-04-13T07:06:53.635Z,6408.00
2023-04-13T07:07:54.003Z,6404.00
2023-04-13T07:08:54.143Z,6352.00
2023-04-13T07:09:54.501Z,6260.00
2023-04-13T07:10:54.664Z,6264.00
2023-04-13T07:11:54.974Z,6292.00
2023-04-13T07:12:55.190Z,6320.00
2023-04-13T07:13:55.385Z,6316.00
2023-04-13T07:14:55.555Z,6372.00
2023-04-13T07:15:55.885Z,6312.00
2023-04-13T07:16:56.050Z,6368.00
2023-04-13T07:17:56.399Z,6324.00
2023-04-13T07:18:56.613Z,6360.00
2023-04-13T07:19:56.815Z,6464.00
2023-04-13T07:20:57.020Z,6612.00
2023-04-13T07:21:57.228Z,6784.00
2023-04-13T07:22:57.438Z,6968.00
2023-04-13T07:23:57.644Z,7088.00
2023-04-13T07:24:57.851Z,7268.00
2023-04-13T07:25:58.056Z,7440.00
2023-04-13T07:26:58.256Z,7608.00
2023-04-13T07:27:58.553Z,7696.00
2023-04-13T07:28:59.063Z,7736.00
2023-04-13T07:29:59.080Z,7804.00
2023-04-13T07:30:59.273Z,7856.00
2023-04-13T07:31:59.515Z,8016.00
2023-04-13T07:32:59.715Z,8344.00
2023-04-13T07:33:59.997Z,8864.00
2023-04-13T07:35:00.195Z,9372.00
2023-04-13T07:36:00.392Z,9808.00
2023-04-13T07:37:00.591Z,10188.00
2023-04-13T07:38:00.885Z,10512.00
2023-04-13T07:39:01.321Z,10964.00
2023-04-13T07:40:01.340Z,11416.00
2023-04-13T07:42:01.741Z,12544.00
2023-04-13T07:43:01.922Z,12744.00
2023-04-13T07:44:02.239Z,12476.00
2023-04-13T07:45:02.420Z,12312.00
2023-04-13T07:46:02.634Z,12284.00
2023-04-13T07:47:03.022Z,12292.00
2023-04-13T07:48:03.203Z,12248.00
2023-04-13T07:49:03.338Z,12220.00
2023-04-13T07:50:03.538Z,11844.00
2023-04-13T07:51:03.749Z,11192.00
2023-04-13T07:52:03.937Z,11048.00
2023-04-13T07:53:04.130Z,11528.00
2023-04-13T07:54:04.324Z,12196.00
2023-04-13T07:55:04.527Z,12952.00
2023-04-13T07:56:04.719Z,13240.00
2023-04-13T07:57:04.916Z,12724.00
2023-04-13T07:58:05.099Z,13132.00
2023-04-13T07:59:05.274Z,13436.00
2023-04-13T08:00:05.474Z,13996.00
2023-04-13T08:01:05.672Z,15000.00
2023-04-13T08:02:05.942Z,16800.00
2023-04-13T08:03:06.154Z,16992.00
2023-04-13T08:04:06.398Z,17088.00
2023-04-13T08:05:06.655Z,17984.00
2023-04-13T08:06:06.715Z,19808.00
2023-04-13T08:07:06.878Z,21312.00
2023-04-13T08:08:07.151Z,19776.00
2023-04-13T08:09:07.326Z,20672.00
2023-04-13T08:10:07.554Z,20480.00
2023-04-13T08:11:07.736Z,21536.00
2023-04-13T08:12:07.911Z,22752.00
2023-04-13T08:13:08.068Z,22432.00
2023-04-13T08:14:08.261Z,18976.00
2023-04-13T08:15:08.439Z,23488.00
2023-04-13T08:16:08.697Z,27424.00
2023-04-13T08:17:08.773Z,32416.00
2023-04-13T08:18:08.944Z,34656.00
2023-04-13T08:19:09.089Z,33184.00
2023-04-13T08:20:10.207Z,35456.00
2023-04-13T08:21:09.496Z,29408.00
2023-04-13T08:22:09.690Z,29760.00
2023-04-13T08:23:11.900Z,27648.00
2023-04-13T08:24:10.109Z,27712.00
2023-04-13T08:25:10.261Z,27136.00
2023-04-13T08:26:10.445Z,26016.00
2023-04-13T08:27:10.595Z,24800.00
2023-04-13T08:28:10.883Z,21632.00
2023-04-13T08:29:11.014Z,26816.00
2023-04-13T08:30:11.314Z,24320.00
2023-04-13T08:31:11.485Z,19264.00
2023-04-13T08:32:11.806Z,18432.00
2023-04-13T08:33:11.868Z,17120.00
2023-04-13T08:34:12.032Z,16544.00
2023-04-13T08:35:12.212Z,16224.00
2023-04-13T08:36:12.388Z,16000.00
2023-04-13T08:37:12.504Z,16288.00
2023-04-13T08:38:12.790Z,17600.00
2023-04-13T08:39:12.931Z,20768.00
2023-04-13T08:40:13.206Z,22528.00
2023-04-13T08:41:13.373Z,26272.00
2023-04-13T08:42:13.536Z,21952.00
2023-04-13T08:43:13.674Z,23232.00
2023-04-13T08:44:13.998Z,22208.00
2023-04-13T08:45:14.187Z,21152.00
2023-04-13T08:46:14.371Z,19712.00
2023-04-13T08:47:14.503Z,19520.00
2023-04-13T08:48:14.721Z,16672.00
2023-04-13T08:49:14.973Z,14600.00
2023-04-13T08:50:15.068Z,13128.00
2023-04-13T08:51:15.207Z,12172.00
2023-04-13T08:52:16.878Z,11624.00
2023-04-13T08:53:15.630Z,11212.00
2023-04-13T08:54:15.726Z,10896.00
2023-04-13T08:55:15.904Z,10640.00
2023-04-13T08:56:16.060Z,10584.00
2023-04-13T08:57:16.226Z,10548.00
2023-04-13T08:58:16.375Z,10608.00
2023-04-13T08:59:16.660Z,10768.00
2023-04-13T09:00:16.845Z,11316.00
2023-04-13T09:01:17.024Z,12384.00
2023-04-13T09:02:17.190Z,14160.00
2023-04-13T09:03:17.479Z,16448.00
2023-04-13T09:04:18.011Z,18464.00
2023-04-13T09:05:18.089Z,19680.00
2023-04-13T09:06:17.964Z,19264.00
2023-04-13T09:07:18.235Z,23104.00
2023-04-13T09:08:18.429Z,23072.00
2023-04-13T09:09:18.624Z,27488.00
2023-04-13T09:10:18.793Z,26016.00
2023-04-13T09:11:18.981Z,28480.00
2023-04-13T09:12:19.136Z,29152.00
2023-04-13T09:13:19.276Z,28352.00
2023-04-13T09:14:19.428Z,32096.00
2023-04-13T09:15:19.606Z,33888.00
2023-04-13T09:16:19.803Z,38560.00
2023-04-13T09:17:20.058Z,41216.00
2023-04-13T09:18:20.191Z,38848.00
2023-04-13T09:19:20.460Z,41024.00
2023-04-13T09:20:20.636Z,38176.00
2023-04-13T09:21:20.804Z,37920.00
2023-04-13T09:22:20.941Z,28736.00
2023-04-13T09:23:21.107Z,30208.00
2023-04-13T09:24:21.267Z,32768.00
2023-04-13T09:25:21.446Z,31808.00
2023-04-13T09:26:21.557Z,36832.00
2023-04-13T09:27:21.723Z,38688.00
2023-04-13T09:28:21.886Z,38112.00
2023-04-13T09:29:22.023Z,30944.00
2023-04-13T09:30:22.169Z,27744.00
2023-04-13T09:31:22.440Z,23040.00
2023-04-13T09:32:22.859Z,15616.00
2023-04-13T09:33:22.769Z,15220.00
2023-04-13T09:34:22.901Z,16160.00
2023-04-13T09:35:23.150Z,14968.00
2023-04-13T09:36:23.339Z,18752.00
2023-04-13T09:37:23.554Z,22176.00
2023-04-13T09:38:23.650Z,27968.00
2023-04-13T09:39:23.938Z,24544.00
2023-04-13T09:40:24.065Z,22816.00
2023-04-13T09:41:24.210Z,31040.00
2023-04-13T09:42:24.348Z,47136.00
2023-04-13T09:43:24.498Z,56032.00
2023-04-13T09:44:25.087Z,56736.00
2023-04-13T09:45:24.863Z,25920.00
2023-04-13T09:46:25.058Z,20224.00
2023-04-13T09:47:25.248Z,20416.00
2023-04-13T09:48:25.332Z,25472.00
2023-04-13T09:49:25.614Z,60576.00
2023-04-13T09:50:25.755Z,29344.00
2023-04-13T09:51:25.915Z,43168.00
2023-04-13T09:52:26.054Z,88608.00
2023-04-13T09:53:26.193Z,82752.00
2023-04-13T09:54:26.360Z,90080.00
2023-04-13T09:55:26.455Z,86816.00
2023-04-13T09:56:26.560Z,32800.00
2023-04-13T09:57:26.701Z,83488.00
2023-04-13T09:58:26.805Z,86528.00
2023-04-13T09:59:26.933Z,83456.00
2023-04-13T10:00:27.066Z,38720.00
2023-04-13T10:01:27.236Z,34688.00
2023-04-13T10:02:27.682Z,31040.00
2023-04-13T10:03:27.709Z,87520.00
2023-04-13T10:04:27.719Z,80608.00
2023-04-13T10:05:29.190Z,23232.00
2023-04-13T10:06:27.982Z,24416.00
2023-04-13T10:07:28.096Z,68224.00
2023-04-13T10:08:37.552Z,62560.00
2023-04-13T10:09:29.370Z,40640.00
2023-04-13T10:10:28.469Z,31424.00
2023-04-13T10:11:28.570Z,64160.00
2023-04-13T10:12:28.662Z,74656.00
2023-04-13T10:13:28.760Z,47200.00
2023-04-13T10:14:28.839Z,66560.00
2023-04-13T10:15:28.944Z,72608.00
2023-04-13T10:16:29.121Z,64640.00
2023-04-13T10:17:29.239Z,41280.00
2023-04-13T10:18:29.551Z,21024.00
2023-04-13T10:19:29.461Z,17856.00
2023-04-13T10:20:29.510Z,17984.00
2023-04-13T10:21:29.602Z,49248.00
2023-04-13T10:22:29.698Z,22624.00
2023-04-13T10:23:29.803Z,18816.00
2023-04-13T10:24:29.868Z,35776.00
2023-04-13T10:25:33.553Z,14848.00
2023-04-13T10:26:30.067Z,13036.00
2023-04-13T10:27:30.170Z,12032.00
2023-04-13T10:28:30.396Z,13324.00
2023-04-13T10:29:30.689Z,15968.00
2023-04-13T10:30:30.668Z,17088.00
2023-04-13T10:31:30.809Z,18624.00
2023-04-13T10:32:30.930Z,25824.00
2023-04-13T10:33:31.052Z,21760.00
2023-04-13T10:34:31.187Z,22976.00
2023-04-13T10:35:31.351Z,23936.00
2023-04-13T10:36:31.460Z,39040.00
2023-04-13T10:37:31.695Z,31072.00
2023-04-13T10:38:31.818Z,32448.00
2023-04-13T10:39:32.059Z,18560.00
2023-04-13T10:40:32.199Z,17824.00
2023-04-13T10:41:32.339Z,19424.00
2023-04-13T10:42:34.621Z,23776.00
2023-04-13T10:43:33.713Z,19904.00
2023-04-13T10:45:34.081Z,15712.00
2023-04-13T10:46:40.245Z,15472.00
2023-04-13T10:47:33.447Z,15416.00
2023-04-13T10:48:33.571Z,18208.00
2023-04-13T10:49:33.709Z,19840.00
2023-04-13T10:50:33.854Z,19744.00
2023-04-13T10:51:34.005Z,49952.00
2023-04-13T10:52:34.131Z,30080.00
2023-04-13T10:53:34.288Z,33344.00
2023-04-13T10:54:34.427Z,25312.00
2023-04-13T10:55:34.592Z,21440.00
2023-04-13T10:56:34.794Z,20544.00
2023-04-13T10:57:34.931Z,21184.00
2023-04-13T10:58:35.061Z,19680.00
2023-04-13T10:59:39.177Z,15776.00
2023-04-13T11:00:44.830Z,12544.00
2023-04-13T11:01:36.684Z,11444.00
2023-04-13T11:02:35.864Z,11380.00
2023-04-13T11:03:36.053Z,11040.00
2023-04-13T11:04:36.301Z,10836.00
2023-04-13T11:05:36.416Z,11188.00
2023-04-13T11:06:36.554Z,12336.00
2023-04-13T11:07:36.703Z,13252.00
2023-04-13T11:08:36.868Z,15968.00
2023-04-13T11:09:37.041Z,15840.00
2023-04-13T11:10:37.190Z,16320.00
2023-04-13T11:11:37.368Z,18112.00
2023-04-13T11:12:37.489Z,19392.00
2023-04-13T11:13:37.735Z,18368.00
2023-04-13T11:14:37.869Z,17120.00
2023-04-13T11:15:38.140Z,16128.00
2023-04-13T11:16:38.320Z,13116.00
2023-04-13T11:17:38.583Z,10928.00
2023-04-13T11:18:38.708Z,9844.00
2023-04-13T11:19:38.985Z,10340.00
2023-04-13T11:20:39.148Z,11288.00
2023-04-13T11:21:39.304Z,12136.00
2023-04-13T11:22:39.627Z,13604.00
2023-04-13T11:23:39.640Z,14892.00
2023-04-13T11:24:39.795Z,16096.00
2023-04-13T11:25:39.960Z,17792.00
2023-04-13T11:26:42.244Z,18368.00
2023-04-13T11:27:40.283Z,18112.00
2023-04-13T11:28:40.485Z,17792.00
2023-04-13T11:29:40.648Z,18176.00
2023-04-13T11:30:40.812Z,17280.00
2023-04-13T11:31:41.187Z,16384.00
2023-04-13T11:32:41.223Z,13392.00
2023-04-13T11:33:41.367Z,11068.00
2023-04-13T11:34:41.511Z,10528.00
2023-04-13T11:35:41.670Z,10212.00
2023-04-13T11:36:41.812Z,10388.00
2023-04-13T11:37:41.986Z,10940.00
2023-04-13T11:38:42.266Z,12852.00
2023-04-13T11:39:42.309Z,14552.00
2023-04-13T11:40:42.464Z,15744.00
2023-04-13T11:41:42.606Z,17056.00
2023-04-13T11:42:42.828Z,17696.00
2023-04-13T11:43:42.925Z,17984.00
2023-04-13T11:44:43.071Z,18272.00
2023-04-13T11:45:43.350Z,17696.00
2023-04-13T11:46:43.488Z,17152.00
2023-04-13T11:47:43.658Z,18208.00
2023-04-13T11:48:43.931Z,19456.00
2023-04-13T11:49:43.951Z,19776.00
2023-04-13T11:50:44.104Z,18336.00
2023-04-13T11:51:44.234Z,17632.00
2023-04-13T11:52:44.514Z,17216.00
2023-04-13T11:53:44.554Z,14736.00
2023-04-13T11:54:44.703Z,12964.00
2023-04-13T11:55:52.924Z,11564.00
2023-04-13T11:56:47.799Z,11060.00
2023-04-13T11:57:45.181Z,11028.00
2023-04-13T11:58:45.357Z,12008.00
2023-04-13T11:59:45.491Z,14088.00
2023-04-13T12:00:45.637Z,16960.00
2023-04-13T12:01:50.248Z,21728.00
2023-04-13T12:03:00.888Z,32832.00
2023-04-13T12:04:01.452Z,34016.00
2023-04-13T12:04:47.442Z,33824.00
2023-04-13T12:05:46.855Z,34592.00
2023-04-13T12:06:47.419Z,29600.00
2023-04-13T12:07:47.556Z,20640.00
2023-04-13T12:08:57.533Z,20352.00
2023-04-13T12:11:07.232Z,21280.00
2023-04-13T12:11:52.099Z,20192.00
2023-04-13T12:12:53.193Z,18368.00
2023-04-13T12:14:05.884Z,15776.00
2023-04-13T12:14:59.240Z,15152.00
2023-04-13T12:17:04.059Z,20512.00
2023-04-13T12:17:56.176Z,20544.00
2023-04-13T12:18:57.958Z,14680.00
2023-04-13T12:19:51.755Z,14544.00
2023-04-13T12:20:49.307Z,14832.00
2023-04-13T12:21:49.599Z,13996.00
2023-04-13T12:22:57.704Z,13936.00
2023-04-13T12:23:51.274Z,14420.00
2023-04-13T12:24:51.076Z,14768.00
2023-04-13T12:25:50.186Z,14624.00
2023-04-13T12:27:50.435Z,14060.00
2023-04-13T12:28:50.558Z,13332.00